NCAR-RAP Real-Time Weather Data

Output produced by METARs form (12 August 2020  17:58 UTC)
found at http://weather.rap.ucar.edu/surface/
 
KPWM 121751Z 19007KT 10SM FEW047 BKN050 31/21 A2998 RMK AO2 SLP151 T03110206 10339 20267 53002
KPWM 121651Z VRB04KT 10SM FEW042 SCT047 SCT250 33/19 A2997 RMK AO2 SLP150 T03330189
KPWM 121551Z 31007KT 10SM FEW039 SCT250 32/19 A2997 RMK AO2 SLP149 T03170194
KPWM 121451Z 01007KT 10SM SCT036 SCT250 31/20 A2997 RMK AO2 SLP149 T03110200 51010
KPWM 121351Z 32008KT 300V360 10SM FEW040 FEW150 BKN250 30/20 A2997 RMK AO2 SLP149 T03000200
KPWM 121251Z 28008KT 10SM FEW035 FEW150 BKN250 28/20 A2996 RMK AO2 SLP145 T02830200
KPWM 121151Z 25009KT 10SM FEW150 SCT250 27/21 A2994 RMK AO2 SLP138 T02670206 10267 20233 51012
KPWM 121051Z 22006KT 10SM FEW150 FEW250 24/21 A2993 RMK AO2 SLP134 T02440206
KPWM 120951Z 21005KT 10SM FEW090 SCT150 24/20 A2992 RMK AO2 SLP131 T02440200
KPWM 120851Z 19003KT 10SM FEW090 OVC150 24/19 A2991 RMK AO2 SLP126 T02390194 53002
KPWM 120751Z AUTO 18004KT 10SM CLR 24/19 A2990 RMK AO2 SLP123 T02440194
KPWM 120651Z AUTO 19003KT 10SM CLR 23/19 A2990 RMK AO2 SLP124 T02330194
KPWM 120551Z AUTO 20005KT 10SM CLR 23/19 A2990 RMK AO2 SLP124 T02330194 10267 20233 51003
KPWM 120451Z AUTO 19006KT 10SM CLR 24/20 A2989 RMK AO2 SLP122 T02440200 403280200
KPWM 120351Z 20004KT 10SM CLR 25/20 A2990 RMK AO2 SLP123 LAST T02500200
KPWM 120251Z 19005KT 10SM CLR 26/20 A2989 RMK AO2 SLP120 T02610200 51006
KPWM 120151Z 19008KT 10SM FEW120 26/20 A2989 RMK AO2 SLP120 T02610200
KPWM 120051Z 19009KT 10SM BKN120 26/19 A2988 RMK AO2 SLP116 T02560194
KPWM 112351Z 18010KT 10SM FEW250 27/20 A2987 RMK AO2 SLP114 T02670200 10317 20267 55003
KPWM 112251Z 18008KT 10SM SCT250 28/21 A2987 RMK AO2 SLP113 T02780206
KPWM 112151Z 19011KT 10SM SCT250 29/19 A2987 RMK AO2 SLP114 T02890194
KPWM 112051Z 18010G22KT 10SM FEW050 SCT250 29/21 A2988 RMK AO2 SLP117 T02890211 56013
KPWM 111951Z 17011KT 10SM FEW050 SCT250 31/22 A2988 RMK AO2 SLP118 T03060217
KPWM 111851Z 16010KT 10SM FEW050 SCT250 31/21 A2990 RMK AO2 SLP124 T03110206
KPWM 111751Z 17010KT 10SM FEW050 SCT250 31/21 A2991 RMK AO2 SLP129 T03110206 10328 20239 56014
KPWM 111651Z 15009KT 10SM SCT046 BKN250 33/21 A2993 RMK AO2 SLP134 T03280206
KPWM 111551Z 14008KT 10SM FEW045 SCT250 32/21 A2994 RMK AO2 SLP137 T03170206
KPWM 111451Z 09005KT 10SM SCT250 30/21 A2996 RMK AO2 SLP143 T03000211 52002
KPWM 111351Z 00000KT 10SM SCT250 29/20 A2995 RMK AO2 SLP141 T02940200
KPWM 111251Z VRB05KT 10SM FEW250 27/20 A2996 RMK AO2 SLP143 T02720200
KPWM 111151Z 00000KT 8SM FEW150 FEW250 24/19 A2995 RMK AO2 SLP141 70001 T02390194 10239 20200 50010
KPWM 111051Z 00000KT 7SM FEW120 FEW250 22/19 A2995 RMK AO2 SLP143 T02220194
KPWM 110951Z 00000KT 6SM BR FEW250 21/18 A2993 RMK AO2 SLP136 T02060183
KPWM 110851Z 00000KT 6SM BR CLR 20/18 A2992 RMK AO2 SLP131 T02000183 55001
KPWM 110751Z AUTO 00000KT 5SM BR CLR 21/18 A2992 RMK AO2 SLP130 T02060183
KPWM 110651Z AUTO 00000KT 6SM BR CLR 21/19 A2992 RMK AO2 SLP130 T02110189
KPWM 110551Z AUTO 36003KT 7SM CLR 21/19 A2992 RMK AO2 SLP132 T02110189 10250 20211 55000
KPWM 110451Z 36003KT 7SM CLR 21/19 A2992 RMK AO2 SLP132 T02110189 403060211
KPWM 110351Z 00000KT 6SM BR CLR 22/19 A2992 RMK AO2 SLP132 LAST T02170194
KPWM 110251Z 00000KT 8SM CLR 22/19 A2992 RMK AO2 SLP133 T02220194 50001
KPWM 110151Z 00000KT 10SM CLR 23/19 A2993 RMK AO2 SLP135 T02280194
KPWM 110051Z 09003KT 10SM CLR 23/19 A2993 RMK AO2 SLP134 T02280189
KPWM 102351Z 16003KT 10SM SCT200 25/19 A2992 RMK AO2 SLP132 T02500189 10300 20250 58003
KPWM 102251Z 13005KT 10SM FEW055 SCT250 27/18 A2992 RMK AO2 SLP133 T02720183
KPWM 102151Z 16006KT 10SM FEW055 SCT200 28/18 A2993 RMK AO2 SLP135 T02830183
KPWM 102051Z 19006KT 10SM FEW055 SCT200 29/19 A2993 RMK AO2 SLP135 T02890189 56011
KPWM 101951Z 15008KT 10SM FEW055 FEW120 29/19 A2994 RMK AO2 SLP137 T02940189
KPWM 101851Z 15009KT 10SM FEW055 BKN100 30/21 A2995 RMK AO2 SLP140 T03000206